Time;durP1;ratioP1;P1;durP2;ratioP2;P2;SDS_P1;SDS_P2;PMS_P1;PMS_P2;Temp;Humidity;BMP_temperature;BMP_pressure;BME280_temperature;BME280_humidity;BME280_pressure;Samples;Min_cycle;Max_cycle;Signal;HPM_P1;HPM_P2
2023/01/03 00:02:11;;;;;;;5.65;3.15;;;;;;;1.35;77.06;100742.50;5003285;28;20100;-59
2023/01/03 00:04:38;;;;;;;10.05;3.17;;;;;;;1.35;78.13;100742.50;5007342;28;20050;-59
2023/01/03 00:07:12;;;;;;;7.65;2.63;;;;;;;1.34;77.45;100744.16;5006057;28;20053;-60
2023/01/03 00:09:39;;;;;;;8.80;3.00;;;;;;;1.34;77.02;100741.63;5005028;28;20183;-56
2023/01/03 00:14:58;;;;;;;9.07;3.45;;;;;;;1.32;77.73;100730.44;5025842;28;20045;-59
2023/01/03 00:17:25;;;;;;;10.65;3.60;;;;;;;1.31;76.52;100725.31;5012589;28;20084;-56
2023/01/03 00:19:51;;;;;;;7.38;2.78;;;;;;;1.30;77.98;100728.63;5013371;28;20129;-55
2023/01/03 00:22:18;;;;;;;8.85;4.00;;;;;;;1.28;77.81;100732.00;5013376;28;20386;-58
2023/01/03 00:24:47;;;;;;;5.78;2.45;;;;;;;1.27;77.50;100725.16;5011983;28;20489;-57
2023/01/03 00:27:14;;;;;;;7.78;3.38;;;;;;;1.27;77.47;100725.16;5017186;28;20096;-56
2023/01/03 00:29:42;;;;;;;8.20;3.50;;;;;;;1.31;76.95;100728.72;5016680;28;20046;-60
2023/01/03 00:32:09;;;;;;;6.55;2.90;;;;;;;1.36;77.87;100728.94;5012481;28;20046;-56
2023/01/03 00:34:36;;;;;;;8.45;2.65;;;;;;;1.42;76.91;100724.13;5012662;28;20108;-56
2023/01/03 00:37:03;;;;;;;6.63;3.28;;;;;;;1.47;77.98;100721.75;5018351;28;20053;-59
2023/01/03 00:39:29;;;;;;;11.13;3.22;;;;;;;1.50;78.26;100722.78;5041069;28;20045;-57
2023/01/03 00:41:56;;;;;;;6.05;2.90;;;;;;;1.56;78.21;100728.97;5016617;28;20052;-55
2023/01/03 00:44:23;;;;;;;7.85;2.90;;;;;;;1.58;76.43;100724.81;5014914;28;20081;-57
2023/01/03 00:46:49;;;;;;;7.43;2.80;;;;;;;1.60;78.26;100723.19;5019947;28;20486;-54
2023/01/03 00:49:16;;;;;;;9.98;3.22;;;;;;;1.64;78.02;100719.97;5014433;28;20498;-55
2023/01/03 00:51:43;;;;;;;9.85;3.28;;;;;;;1.67;77.90;100709.88;5010110;28;20077;-55
2023/01/03 00:54:11;;;;;;;8.10;3.20;;;;;;;1.71;77.87;100704.09;5009419;28;20054;-58
2023/01/03 00:56:40;;;;;;;6.63;2.92;;;;;;;1.74;77.57;100699.13;5008039;28;20163;-59
2023/01/03 00:59:08;;;;;;;11.05;3.75;;;;;;;1.79;77.54;100714.69;5011003;28;20184;-58
2023/01/03 01:01:45;;;;;;;7.60;3.20;;;;;;;1.80;77.25;100707.06;5011165;28;20115;-56
2023/01/03 01:04:20;;;;;;;12.35;4.05;;;;;;;1.84;76.88;100696.97;5007447;28;20076;-59
2023/01/03 01:06:51;;;;;;;9.02;4.10;;;;;;;1.89;76.93;100703.19;5029177;28;20060;-56
2023/01/03 01:09:25;;;;;;;9.70;3.30;;;;;;;1.91;76.62;100704.97;5010502;28;20570;-58
2023/01/03 01:11:52;;;;;;;8.00;3.15;;;;;;;1.95;77.27;100703.41;5006453;28;20509;-57
2023/01/03 01:14:21;;;;;;;8.60;4.03;;;;;;;1.97;77.32;100706.94;5011481;28;20046;-58
2023/01/03 01:16:56;;;;;;;5.57;3.17;;;;;;;1.98;77.38;100693.34;5007186;28;20512;-59
2023/01/03 01:19:27;;;;;;;7.75;3.03;;;;;;;1.97;77.21;100704.38;5009193;28;20064;-57
2023/01/03 01:21:54;;;;;;;6.65;2.53;;;;;;;1.95;77.48;100694.91;5015173;28;20054;-59
2023/01/03 01:24:21;;;;;;;7.13;2.85;;;;;;;1.95;76.93;100689.78;5013979;28;20073;-57
2023/01/03 01:26:48;;;;;;;8.32;3.75;;;;;;;1.97;77.13;100696.72;5007538;28;20062;-59
2023/01/03 01:29:16;;;;;;;8.27;3.13;;;;;;;1.96;77.76;100707.72;5008503;28;20076;-53
2023/01/03 01:31:44;;;;;;;7.75;3.00;;;;;;;1.97;76.88;100698.38;5006729;28;20390;-59
2023/01/03 01:34:11;;;;;;;6.97;3.67;;;;;;;2.00;76.84;100695.97;5007518;28;20088;-56
2023/01/03 01:36:40;;;;;;;8.25;3.53;;;;;;;2.01;78.00;100701.13;5010633;28;20141;-56
2023/01/03 01:39:12;;;;;;;8.80;3.05;;;;;;;2.01;77.24;100701.13;5023797;28;20045;-56
2023/01/03 01:50:16;;;;;;;10.15;4.55;;;;;;;1.98;76.74;100674.56;5071535;27;21102;-58
2023/01/03 01:52:52;;;;;;;9.30;4.40;;;;;;;1.97;77.01;100670.28;5062203;28;20040;-56
2023/01/03 01:55:34;;;;;;;9.50;3.83;;;;;;;1.96;78.25;100666.84;5063346;28;20144;-58
2023/01/03 01:58:01;;;;;;;8.30;4.22;;;;;;;1.97;78.01;100666.06;5073560;28;20173;-56
2023/01/03 02:00:28;;;;;;;9.68;4.30;;;;;;;1.97;78.28;100673.72;5074084;28;20480;-59
2023/01/03 02:02:55;;;;;;;6.88;3.13;;;;;;;1.96;77.55;100671.94;5078389;28;20048;-59
2023/01/03 02:05:22;;;;;;;8.50;3.95;;;;;;;1.97;76.76;100667.72;5078280;28;20571;-54
2023/01/03 02:07:50;;;;;;;10.25;4.38;;;;;;;1.96;77.63;100665.97;5079830;28;20051;-56
2023/01/03 02:10:22;;;;;;;9.93;3.47;;;;;;;1.96;78.52;100660.88;5077107;28;20036;-56
2023/01/03 02:13:04;;;;;;;6.50;2.42;;;;;;;1.97;78.34;100658.38;5081324;28;20047;-56
2023/01/03 02:24:18;;;;;;;6.97;2.63;;;;;;;2.12;78.96;100652.16;5009970;28;20760;-56
2023/01/03 02:26:55;;;;;;;3.42;1.67;;;;;;;2.23;79.45;100656.03;4992281;28;20085;-55
2023/01/03 02:32:19;;;;;;;4.38;2.58;;;;;;;2.39;80.34;100646.41;5031895;28;20427;-56
2023/01/03 02:37:41;;;;;;;4.50;1.42;;;;;;;2.48;80.11;100634.03;5083771;27;20902;-54
2023/01/03 02:40:27;;;;;;;4.32;1.92;;;;;;;2.59;79.88;100637.00;5033864;28;20041;-59
2023/01/03 02:51:09;;;;;;;9.27;2.13;;;;;;;2.97;80.70;100623.06;5017201;27;20402;-58
2023/01/03 02:53:42;;;;;;;6.28;1.80;;;;;;;3.00;80.44;100626.59;5018572;28;20200;-57
2023/01/03 02:56:14;;;;;;;5.32;1.70;;;;;;;3.01;80.74;100618.09;5013260;28;20504;-56
2023/01/03 02:58:45;;;;;;;7.70;2.50;;;;;;;3.04;81.15;100610.53;5014709;28;20049;-56
2023/01/03 03:01:15;;;;;;;3.78;2.13;;;;;;;3.10;80.91;100606.50;5010866;28;20076;-57
2023/01/03 03:03:44;;;;;;;5.97;2.05;;;;;;;3.10;81.01;100601.38;5018557;28;20073;-58
2023/01/03 03:08:48;;;;;;;7.72;2.45;;;;;;;3.17;80.57;100608.44;5025784;28;20409;-55
2023/01/03 03:14:24;;;;;;;12.10;2.70;;;;;;;3.24;80.31;100605.28;5019466;28;20069;-56
2023/01/03 03:16:53;;;;;;;4.63;1.75;;;;;;;3.26;80.07;100595.97;5020370;28;20053;-56
2023/01/03 03:24:51;;;;;;;6.35;3.22;;;;;;;3.27;81.29;100573.81;5027032;28;20066;-55
2023/01/03 03:30:14;;;;;;;4.20;2.40;;;;;;;3.26;80.31;100561.81;5027149;28;20054;-57
2023/01/03 03:32:43;;;;;;;4.20;2.92;;;;;;;3.25;81.14;100554.97;5001064;28;20073;-58
2023/01/03 03:35:13;;;;;;;5.70;3.63;;;;;;;3.24;80.88;100541.28;5001288;28;20042;-56
2023/01/03 03:37:44;;;;;;;6.80;2.70;;;;;;;3.23;80.86;100531.88;4996302;28;20414;-55
2023/01/03 03:51:22;;;;;;;11.32;4.65;;;;;;;3.29;79.91;100556.81;5077510;27;20411;-58
2023/01/03 03:53:52;;;;;;;6.50;4.35;;;;;;;3.20;80.93;100544.53;5074173;28;20066;-56
2023/01/03 03:56:23;;;;;;;12.82;5.15;;;;;;;3.21;80.67;100542.03;5053660;28;20143;-57
2023/01/03 03:58:55;;;;;;;8.40;4.00;;;;;;;3.14;80.15;100536.66;5059868;28;20071;-58
2023/01/03 04:01:24;;;;;;;8.55;3.83;;;;;;;3.11;80.63;100541.66;5055369;28;20041;-58
2023/01/03 04:03:55;;;;;;;6.20;3.78;;;;;;;3.12;80.76;100544.28;5055745;28;20060;-58
2023/01/03 04:06:27;;;;;;;7.35;3.83;;;;;;;3.10;81.03;100535.66;5055945;28;20139;-58
2023/01/03 04:08:54;;;;;;;7.18;2.67;;;;;;;3.11;81.12;100536.56;5056095;28;20424;-57
2023/01/03 04:11:20;;;;;;;6.43;4.60;;;;;;;3.13;81.01;100534.91;5056424;28;20057;-58
2023/01/03 04:13:47;;;;;;;8.60;4.88;;;;;;;3.11;80.58;100523.75;5056219;28;20095;-57
2023/01/03 04:16:13;;;;;;;8.70;4.53;;;;;;;3.09;79.81;100518.59;5058565;28;20095;-56
2023/01/03 04:18:40;;;;;;;8.48;4.68;;;;;;;3.06;80.25;100524.47;5059603;28;20056;-58
2023/01/03 04:21:07;;;;;;;8.38;4.53;;;;;;;3.02;79.55;100527.75;5060151;28;20041;-58
2023/01/03 04:23:33;;;;;;;10.32;5.40;;;;;;;2.95;79.92;100520.66;5058073;28;20049;-57
2023/01/03 04:26:00;;;;;;;9.07;4.38;;;;;;;2.88;79.30;100529.81;5060947;28;20072;-58
2023/01/03 04:28:26;;;;;;;9.25;4.80;;;;;;;2.82;80.11;100525.31;5055308;28;20106;-58
2023/01/03 04:30:53;;;;;;;12.30;5.45;;;;;;;2.73;79.84;100514.75;5055847;28;20064;-56
2023/01/03 04:33:19;;;;;;;11.70;5.45;;;;;;;2.74;79.74;100520.75;5057363;28;20052;-58
2023/01/03 04:35:46;;;;;;;8.32;4.20;;;;;;;2.72;81.19;100513.00;5053213;28;20117;-59
2023/01/03 04:38:13;;;;;;;9.23;5.20;;;;;;;2.74;81.17;100511.38;5057274;28;20063;-58
2023/01/03 04:40:39;;;;;;;8.60;5.00;;;;;;;2.78;81.12;100509.81;5052585;28;20136;-58
2023/01/03 04:45:52;;;;;;;9.18;4.18;;;;;;;2.77;82.84;100506.34;5054862;28;20072;-57
2023/01/03 04:48:19;;;;;;;7.97;4.75;;;;;;;2.81;83.42;100495.41;5055355;28;20106;-56
2023/01/03 04:50:55;;;;;;;9.40;4.75;;;;;;;2.83;84.02;100495.47;5057031;28;20037;-57
2023/01/03 04:53:23;;;;;;;8.00;4.20;;;;;;;2.87;84.00;100486.25;5055224;28;20102;-58
2023/01/03 04:55:52;;;;;;;12.45;5.70;;;;;;;2.91;83.35;100482.97;5059014;28;20044;-56
2023/01/03 04:58:19;;;;;;;7.32;3.22;;;;;;;2.88;85.02;100464.94;5054654;28;20386;-57
2023/01/03 05:00:46;;;;;;;12.07;5.78;;;;;;;2.91;83.96;100472.75;5050882;28;20044;-58
2023/01/03 05:03:13;;;;;;;6.25;4.15;;;;;;;2.88;84.33;100462.38;5042316;28;20083;-56
2023/01/03 05:05:39;;;;;;;7.30;4.70;;;;;;;2.93;85.40;100460.84;5047495;28;20051;-58
2023/01/03 05:08:08;;;;;;;8.52;4.70;;;;;;;2.97;84.31;100469.53;5042839;28;20094;-57
2023/01/03 05:10:37;;;;;;;12.40;5.53;;;;;;;2.99;85.11;100463.63;5042923;28;20120;-57
2023/01/03 05:13:04;;;;;;;11.07;5.78;;;;;;;3.01;85.46;100469.66;5044643;28;20041;-57
2023/01/03 05:15:34;;;;;;;8.68;4.38;;;;;;;3.06;85.70;100473.28;5042080;28;20068;-58
2023/01/03 05:18:01;;;;;;;10.77;5.25;;;;;;;3.07;85.16;100475.00;5047612;28;20051;-57
2023/01/03 05:26:06;;;;;;;13.20;6.20;;;;;;;3.11;85.86;100454.66;5047523;28;20098;-58
2023/01/03 05:28:33;;;;;;;;;;;;;;;3.10;85.30;100458.03;5043237;28;20053;-55
2023/01/03 05:31:00;;;;;;;12.07;6.13;;;;;;;3.12;85.53;100464.06;5041469;28;20017;-57
2023/01/03 05:33:27;;;;;;;11.93;5.63;;;;;;;3.13;86.46;100464.13;5043193;28;20053;-58
2023/01/03 05:35:54;;;;;;;10.65;5.60;;;;;;;3.15;85.88;100446.25;5040651;28;20052;-57
2023/01/03 05:38:22;;;;;;;11.93;6.15;;;;;;;3.19;85.80;100437.84;5042454;28;20045;-57
2023/01/03 05:40:50;;;;;;;13.00;6.75;;;;;;;3.18;86.48;100431.00;5042039;28;20524;-58
2023/01/03 05:43:16;;;;;;;14.48;6.53;;;;;;;3.21;86.45;100442.19;5047932;28;20072;-57
2023/01/03 05:45:49;;;;;;;10.07;5.88;;;;;;;3.21;85.94;100431.97;5058191;28;20063;-55
2023/01/03 05:48:17;;;;;;;11.40;5.95;;;;;;;3.27;86.00;100441.53;5065557;28;20125;-57
2023/01/03 05:50:44;;;;;;;11.75;4.47;;;;;;;3.23;85.57;100429.47;5058305;28;20404;-58
2023/01/03 05:53:11;;;;;;;13.60;6.90;;;;;;;3.29;85.95;100441.59;5062466;28;20053;-58
2023/01/03 05:55:38;;;;;;;11.18;5.65;;;;;;;3.30;85.56;100430.53;5063800;28;20068;-57
2023/01/03 05:58:06;;;;;;;10.30;5.68;;;;;;;3.32;85.46;100422.06;5060958;28;20049;-56
2023/01/03 06:00:33;;;;;;;13.05;6.75;;;;;;;3.37;85.77;100427.34;5061715;28;20064;-57
2023/01/03 06:03:00;;;;;;;18.42;7.68;;;;;;;3.39;85.97;100427.41;5067409;28;20079;-55
2023/01/03 06:05:27;;;;;;;11.95;6.30;;;;;;;3.42;86.43;100424.94;5064992;28;20528;-58
2023/01/03 06:07:53;;;;;;;16.85;7.90;;;;;;;3.45;85.52;100431.03;5062303;28;20500;-58
2023/01/03 06:10:20;;;;;;;18.33;8.35;;;;;;;3.44;85.35;100423.28;5066001;28;20037;-57
2023/01/03 06:12:47;;;;;;;12.38;6.47;;;;;;;3.43;86.13;100416.44;5059366;28;20094;-57
2023/01/03 06:15:13;;;;;;;13.38;6.63;;;;;;;3.43;85.48;100412.19;5060940;28;20056;-55
2023/01/03 06:20:27;;;;;;;15.13;6.25;;;;;;;3.45;86.43;100414.81;5064672;28;20119;-57
2023/01/03 06:22:54;;;;;;;17.15;7.65;;;;;;;3.50;85.83;100413.25;5064084;28;20048;-57
2023/01/03 06:25:21;;;;;;;13.75;6.60;;;;;;;3.50;85.88;100410.69;5067470;28;20569;-57
2023/01/03 06:27:48;;;;;;;14.38;7.38;;;;;;;3.53;86.09;100403.13;5063546;28;20551;-55
2023/01/03 06:30:15;;;;;;;14.90;6.82;;;;;;;3.52;86.70;100398.81;5063799;28;20179;-56
2023/01/03 06:32:43;;;;;;;13.80;6.57;;;;;;;3.52;87.13;100391.16;5063602;28;20053;-57
2023/01/03 06:35:10;;;;;;;13.15;4.25;;;;;;;3.59;86.48;100393.03;5064102;28;20420;-56
2023/01/03 06:37:37;;;;;;;11.18;4.70;;;;;;;3.58;86.30;100390.47;5062080;28;20399;-58
2023/01/03 06:40:05;;;;;;;12.25;4.65;;;;;;;3.55;86.95;100391.22;5061869;28;20315;-57
2023/01/03 06:42:48;;;;;;;16.15;7.75;;;;;;;3.63;86.25;100388.03;5063207;28;20060;-56
2023/01/03 06:53:40;;;;;;;12.85;6.70;;;;;;;3.59;86.94;100372.56;5060278;28;20044;-57
2023/01/03 06:56:07;;;;;;;14.32;6.88;;;;;;;3.61;87.38;100370.03;5061267;28;20135;-56
2023/01/03 06:58:35;;;;;;;14.45;6.55;;;;;;;3.67;86.61;100364.25;5062120;28;20131;-57
2023/01/03 07:01:03;;;;;;;13.18;6.30;;;;;;;3.70;87.11;100364.34;5061317;28;20123;-54
2023/01/03 07:03:30;;;;;;;12.27;6.28;;;;;;;3.73;87.19;100364.44;5063530;28;20053;-57
2023/01/03 07:05:57;;;;;;;21.92;8.45;;;;;;;3.73;87.05;100354.19;5055756;28;20106;-57
2023/01/03 07:08:23;;;;;;;12.35;5.90;;;;;;;3.73;87.84;100364.44;5059740;28;20052;-57
2023/01/03 07:10:50;;;;;;;16.58;6.97;;;;;;;3.73;87.42;100354.19;5058628;28;20127;-58
2023/01/03 07:16:03;;;;;;;10.38;5.78;;;;;;;3.75;87.68;100339.72;5044372;28;20078;-57
2023/01/03 07:18:30;;;;;;;15.43;6.93;;;;;;;3.76;87.71;100344.03;5060775;28;20135;-57
2023/01/03 07:20:57;;;;;;;11.23;5.88;;;;;;;3.80;87.99;100340.75;5059168;28;20130;-58
2023/01/03 07:23:23;;;;;;;11.48;5.60;;;;;;;3.84;88.04;100342.56;5060574;28;20098;-55
2023/01/03 07:25:54;;;;;;;10.52;5.43;;;;;;;3.85;88.19;100339.19;5056701;28;20106;-57
2023/01/03 07:28:20;;;;;;;13.43;4.88;;;;;;;3.92;88.32;100344.50;5064884;28;20068;-55
2023/01/03 07:30:47;;;;;;;10.93;5.32;;;;;;;3.94;88.25;100342.84;5063942;28;20103;-57
2023/01/03 07:33:15;;;;;;;13.27;6.25;;;;;;;4.04;88.28;100337.16;5064208;28;20056;-56
2023/01/03 07:35:42;;;;;;;16.38;6.28;;;;;;;4.05;88.88;100336.31;5062888;28;20496;-58
2023/01/03 07:38:10;;;;;;;12.15;6.05;;;;;;;4.10;88.73;100334.78;5060925;28;20044;-57
2023/01/03 07:40:37;;;;;;;8.65;5.57;;;;;;;4.16;89.18;100328.06;5063199;28;20094;-56
2023/01/03 07:45:50;;;;;;;8.18;4.60;;;;;;;4.31;89.16;100333.63;5056324;28;20053;-55
2023/01/03 07:48:17;;;;;;;9.32;3.50;;;;;;;4.36;89.46;100334.63;5060490;28;20382;-57
2023/01/03 07:50:43;;;;;;;9.38;4.50;;;;;;;4.44;89.12;100336.53;5058001;28;20050;-61
2023/01/03 07:53:15;;;;;;;9.77;4.70;;;;;;;4.48;88.82;100330.66;5049542;28;20079;-56
2023/01/03 07:55:44;;;;;;;11.10;5.00;;;;;;;4.55;89.11;100327.41;5046454;28;20053;-57
2023/01/03 07:58:11;;;;;;;12.10;4.65;;;;;;;4.58;89.84;100312.13;5058629;28;20551;-56
2023/01/03 08:00:38;;;;;;;6.60;3.95;;;;;;;4.66;88.94;100324.28;5059408;28;20631;-57
2023/01/03 08:03:06;;;;;;;9.10;5.00;;;;;;;4.74;90.22;100318.53;5059372;28;20132;-57
2023/01/03 08:05:37;;;;;;;8.43;4.88;;;;;;;4.79;89.20;100321.19;5061050;28;20053;-58
2023/01/03 08:08:04;;;;;;;12.13;4.88;;;;;;;4.85;89.61;100317.91;5058071;28;20113;-58
2023/01/03 08:13:17;;;;;;;8.77;4.05;;;;;;;4.93;90.14;100312.97;5063593;28;20495;-57
2023/01/03 08:18:24;;;;;;;11.63;3.58;;;;;;;5.07;89.17;100313.31;5060137;28;20400;-56
2023/01/03 08:20:53;;;;;;;7.55;2.45;;;;;;;5.08;89.21;100309.91;4992672;28;20046;-56
2023/01/03 08:23:21;;;;;;;13.07;4.10;;;;;;;5.14;90.31;100310.06;4998102;28;20467;-56
2023/01/03 08:25:47;;;;;;;8.15;3.22;;;;;;;5.20;90.55;100293.94;4990920;28;20075;-58
2023/01/03 08:28:15;;;;;;;12.57;3.75;;;;;;;5.27;89.18;100303.50;5001750;28;20139;-56
2023/01/03 08:30:46;;;;;;;6.75;2.30;;;;;;;5.29;89.56;100299.25;4993591;28;20097;-57
2023/01/03 08:33:14;;;;;;;14.20;4.35;;;;;;;5.35;89.45;100301.97;4993556;28;20536;-56
2023/01/03 08:35:45;;;;;;;10.98;3.47;;;;;;;5.43;89.45;100293.59;5012052;28;20608;-55
2023/01/03 08:38:17;;;;;;;9.75;3.90;;;;;;;5.43;90.33;100294.44;4986005;28;20054;-56
2023/01/03 08:40:45;;;;;;;8.55;3.22;;;;;;;5.55;89.27;100291.28;4989565;28;20050;-57
2023/01/03 08:43:14;;;;;;;12.55;3.50;;;;;;;5.62;89.65;100294.84;4993209;28;20210;-57
2023/01/03 08:45:41;;;;;;;9.05;2.67;;;;;;;5.66;90.37;100296.66;4998180;28;20062;-57
2023/01/03 08:48:09;;;;;;;9.65;2.97;;;;;;;5.74;90.55;100294.25;5006885;28;20112;-57
2023/01/03 08:50:36;;;;;;;5.40;2.28;;;;;;;5.82;90.40;100289.25;5001670;28;20050;-58
2023/01/03 08:53:04;;;;;;;13.88;2.83;;;;;;;5.91;89.67;100287.75;4996079;28;20129;-58
2023/01/03 08:55:32;;;;;;;10.68;2.42;;;;;;;6.02;90.28;100281.94;4998300;28;20042;-58
2023/01/03 08:57:59;;;;;;;6.55;2.60;;;;;;;6.10;89.57;100277.84;4991841;28;20124;-57
2023/01/03 09:00:27;;;;;;;7.45;2.50;;;;;;;6.20;90.02;100290.88;4999068;28;20078;-58
2023/01/03 09:02:58;;;;;;;9.02;3.03;;;;;;;6.27;89.17;100285.91;4996952;28;20069;-58
2023/01/03 09:05:26;;;;;;;6.35;1.52;;;;;;;6.32;89.96;100278.28;4995671;28;20518;-58
2023/01/03 09:07:53;;;;;;;10.70;1.38;;;;;;;6.43;90.38;100276.72;4999379;28;20136;-57
2023/01/03 09:10:21;;;;;;;10.60;1.95;;;;;;;6.45;89.47;100275.91;4994499;28;20144;-58
2023/01/03 09:12:48;;;;;;;8.13;2.95;;;;;;;6.53;89.28;100276.91;4992839;28;20053;-58
2023/01/03 09:15:15;;;;;;;4.60;1.75;;;;;;;6.55;90.22;100270.94;5003833;28;20058;-58
2023/01/03 09:17:44;;;;;;;2.75;1.45;;;;;;;6.61;90.37;100272.75;4999319;28;20046;-57
2023/01/03 09:20:11;;;;;;;8.60;1.65;;;;;;;6.68;90.26;100272.03;4994069;28;20053;-57
2023/01/03 09:22:39;;;;;;;7.30;2.08;;;;;;;6.67;90.30;100254.88;4995096;28;20898;-58
2023/01/03 09:25:06;;;;;;;17.45;3.00;;;;;;;6.77;89.97;100270.44;4978402;28;20462;-58
2023/01/03 09:27:33;;;;;;;7.43;1.75;;;;;;;6.82;90.12;100273.94;4995398;28;20114;-59
2023/01/03 09:29:59;;;;;;;8.05;1.92;;;;;;;6.89;90.33;100265.50;4980665;28;20053;-58
2023/01/03 09:32:26;;;;;;;7.65;1.40;;;;;;;6.94;88.79;100268.16;4989151;28;20050;-58
2023/01/03 09:34:53;;;;;;;7.35;1.90;;;;;;;6.97;89.19;100272.47;4988025;28;20058;-58
2023/01/03 09:37:19;;;;;;;12.50;2.22;;;;;;;7.06;89.59;100267.47;4977674;28;20146;-58
2023/01/03 09:39:46;;;;;;;9.70;1.48;;;;;;;7.10;89.62;100268.38;4983698;28;20050;-58
2023/01/03 09:45:10;;;;;;;9.52;1.85;;;;;;;7.25;90.36;100263.44;4969077;28;20486;-59
2023/01/03 09:47:38;;;;;;;4.88;1.40;;;;;;;7.27;89.94;100261.78;4976346;28;20078;-58
2023/01/03 09:50:09;;;;;;;8.07;1.67;;;;;;;7.34;90.21;100267.88;4984797;28;20101;-58
2023/01/03 10:16:06;;;;;;;4.75;0.90;;;;;;;7.72;89.89;100221.13;5086006;27;20386;-58
2023/01/03 10:19:12;;;;;;;3.30;0.45;;;;;;;7.72;90.03;100228.84;5025182;28;20551;-57
2023/01/03 10:24:28;;;;;;;6.15;1.10;;;;;;;7.82;89.85;100228.94;5099136;27;20401;-58
2023/01/03 10:27:05;;;;;;;4.78;1.83;;;;;;;7.88;90.05;100233.31;5045240;27;20471;-59
2023/01/03 10:29:32;;;;;;;8.05;1.15;;;;;;;7.93;90.22;100219.63;5043880;28;20107;-58
2023/01/03 10:34:37;;;;;;;2.72;1.65;;;;;;;8.02;90.03;100220.56;5022748;28;20415;-58
2023/01/03 10:37:22;;;;;;;6.00;2.58;;;;;;;8.08;90.10;100218.91;4986531;28;20043;-59
2023/01/03 10:40:01;;;;;;;5.80;2.83;;;;;;;8.15;89.94;100212.13;4987660;28;20047;-59
2023/01/03 10:42:31;;;;;;;7.18;2.45;;;;;;;8.25;89.43;100212.19;5019284;28;20042;-59
2023/01/03 10:45:04;;;;;;;5.88;1.63;;;;;;;8.28;89.38;100218.22;5024236;28;20046;-58
2023/01/03 10:47:30;;;;;;;5.45;1.95;;;;;;;8.30;88.83;100226.00;4985227;28;20058;-59
2023/01/03 10:49:59;;;;;;;5.18;1.63;;;;;;;8.35;88.38;100221.75;4984199;28;20074;-59
2023/01/03 10:52:37;;;;;;;3.42;1.40;;;;;;;8.35;88.38;100214.00;4986459;28;20050;-59
2023/01/03 10:55:15;;;;;;;5.45;1.67;;;;;;;8.41;88.23;100213.22;4990444;28;20128;-59
2023/01/03 10:57:58;;;;;;;3.40;1.63;;;;;;;8.44;88.26;100213.25;4989938;28;20470;-59
2023/01/03 11:06:08;;;;;;;8.13;2.22;;;;;;;8.61;88.04;100206.50;5007340;27;20407;-58
2023/01/03 11:11:31;;;;;;;2.72;1.05;;;;;;;8.62;87.70;100202.22;5015093;27;20411;-59
2023/01/03 11:14:23;;;;;;;4.40;0.75;;;;;;;8.58;87.96;100191.00;4999576;28;20462;-59
2023/01/03 11:17:00;;;;;;;1.45;0.55;;;;;;;8.61;88.25;100195.31;4995429;28;20048;-59
2023/01/03 11:19:30;;;;;;;2.22;0.70;;;;;;;8.65;88.17;100197.06;5000123;28;20104;-59
2023/01/03 11:41:54;;;;;;;2.63;1.60;;;;;;;8.70;87.60;100148.91;5021915;27;20400;-52
2023/01/03 11:53:29;;;;;;;0.63;0.45;;;;;;;8.80;87.67;100111.09;5041933;27;20388;-51
2023/01/03 11:58:55;;;;;;;3.60;1.08;;;;;;;9.13;86.90;100114.69;5064292;27;20408;-54
2023/01/03 12:04:52;;;;;;;0.77;0.38;;;;;;;8.98;87.68;100110.31;5023268;28;20415;-53
2023/01/03 12:07:30;;;;;;;1.30;0.90;;;;;;;8.94;87.60;100100.84;4993480;28;20503;-53
2023/01/03 12:10:22;;;;;;;0.90;0.50;;;;;;;8.99;87.80;100103.44;4975772;28;20046;-53
2023/01/03 12:13:19;;;;;;;4.70;0.40;;;;;;;9.00;87.56;100095.72;4979459;28;20113;-53
2023/01/03 12:16:09;;;;;;;1.38;0.82;;;;;;;8.99;87.40;100088.78;4991103;28;20059;-54
2023/01/03 12:18:54;;;;;;;1.02;0.60;;;;;;;9.03;87.79;100088.81;4986194;28;20047;-51
2023/01/03 12:21:32;;;;;;;1.17;0.50;;;;;;;9.05;87.59;100087.13;4982862;28;20483;-52
2023/01/03 12:24:20;;;;;;;1.38;0.73;;;;;;;9.03;87.27;100083.63;4980063;28;20058;-55
2023/01/03 12:27:01;;;;;;;1.02;0.68;;;;;;;9.09;87.10;100071.59;4990038;28;20054;-52
2023/01/03 12:29:42;;;;;;;2.63;0.75;;;;;;;9.11;87.47;100063.88;4989214;28;20051;-53
2023/01/03 12:32:16;;;;;;;1.00;0.40;;;;;;;9.15;87.15;100068.19;4990165;28;20043;-54
2023/01/03 12:37:32;;;;;;;1.80;1.70;;;;;;;9.18;86.93;100057.84;5095498;27;21031;-54
2023/01/03 12:40:05;;;;;;;0.65;0.25;;;;;;;9.19;86.74;100051.81;5068149;28;20044;-52
2023/01/03 12:42:45;;;;;;;0.70;0.40;;;;;;;9.21;87.01;100052.72;5064089;28;20044;-52
2023/01/03 12:50:41;;;;;;;1.27;1.10;;;;;;;9.27;86.85;100041.53;5092293;27;20418;-56
2023/01/03 12:53:33;;;;;;;2.17;1.40;;;;;;;9.25;86.91;100044.09;5092097;28;20062;-55
2023/01/03 13:07:12;;;;;;;1.55;0.32;;;;;;;9.39;86.50;100004.47;5041447;28;20380;-54
2023/01/03 13:09:44;;;;;;;3.97;0.40;;;;;;;9.46;86.69;99995.88;5005034;28;20050;-54
2023/01/03 13:17:29;;;;;;;0.80;0.30;;;;;;;9.56;86.46;99972.63;5006427;27;21184;-56
2023/01/03 13:22:53;;;;;;;1.17;0.45;;;;;;;9.65;86.55;99970.03;5069865;27;21199;-54
2023/01/03 13:25:38;;;;;;;3.00;0.68;;;;;;;9.69;86.75;99971.75;5079120;28;20804;-49
2023/01/03 13:28:28;;;;;;;2.25;0.70;;;;;;;9.70;86.68;99963.16;5062491;28;20123;-54
2023/01/03 13:37:08;;;;;;;2.65;1.65;;;;;;;9.74;85.84;99946.78;5055268;28;20882;-53
2023/01/03 13:47:48;;;;;;;1.55;1.30;;;;;;;9.93;86.08;99927.75;5015811;28;20411;-54
2023/01/03 14:07:15;;;;;;;2.78;1.95;;;;;;;9.96;84.81;99879.44;5086268;27;20401;-56
2023/01/03 14:12:50;;;;;;;1.67;0.65;;;;;;;9.98;85.22;99882.91;5062152;28;20393;-55
2023/01/03 14:15:20;;;;;;;3.53;0.85;;;;;;;10.03;85.42;99872.53;4995083;28;20060;-55
2023/01/03 14:17:58;;;;;;;5.57;0.82;;;;;;;10.00;84.74;99872.56;5050130;28;20053;-54
2023/01/03 14:20:31;;;;;;;3.20;0.30;;;;;;;9.99;84.88;99866.50;5042424;28;20045;-55
2023/01/03 14:23:05;;;;;;;3.50;0.93;;;;;;;10.07;84.57;99865.63;5043026;28;20044;-54
2023/01/03 14:25:53;;;;;;;1.95;0.60;;;;;;;10.08;84.75;99857.84;5046959;28;20049;-54
2023/01/03 14:31:01;;;;;;;4.63;1.63;;;;;;;10.12;84.46;99853.53;5059071;27;20412;-55
2023/01/03 14:33:34;;;;;;;3.53;1.70;;;;;;;10.13;84.56;99837.13;5005340;28;20046;-56
2023/01/03 14:38:47;;;;;;;4.07;0.65;;;;;;;10.15;85.07;99835.41;5020678;28;20411;-55
2023/01/03 14:41:28;;;;;;;6.90;0.68;;;;;;;10.14;84.12;99841.44;5022495;28;20497;-55
2023/01/03 14:46:52;;;;;;;6.00;0.93;;;;;;;10.22;84.78;99831.91;5025896;27;20407;-53
2023/01/03 14:49:23;;;;;;;8.75;0.77;;;;;;;10.22;84.58;99852.63;5000737;28;20058;-54
2023/01/03 14:52:02;;;;;;;8.82;2.17;;;;;;;10.23;84.80;99849.16;5033153;28;20085;-54
2023/01/03 14:54:29;;;;;;;5.10;0.82;;;;;;;10.26;83.71;99849.16;4998787;28;20136;-53
2023/01/03 14:56:58;;;;;;;4.07;0.82;;;;;;;10.25;84.19;99847.44;4999464;28;20050;-54
2023/01/03 14:59:25;;;;;;;10.05;1.02;;;;;;;10.31;84.67;99843.09;4997195;28;20136;-56
2023/01/03 15:01:52;;;;;;;8.20;1.88;;;;;;;10.26;84.72;99833.63;4993854;28;20133;-53
2023/01/03 15:04:23;;;;;;;6.15;1.25;;;;;;;10.19;84.26;99821.56;5001813;28;20054;-53
2023/01/03 15:07:00;;;;;;;3.33;0.75;;;;;;;10.19;84.26;99818.97;5000817;28;20070;-54
2023/01/03 15:09:38;;;;;;;8.70;1.25;;;;;;;10.21;85.07;99830.22;4987145;28;20046;-53
2023/01/03 15:12:05;;;;;;;9.13;1.33;;;;;;;10.21;84.19;99817.25;4992385;28;20617;-52
2023/01/03 15:14:35;;;;;;;6.32;1.08;;;;;;;10.23;84.96;99807.75;4991667;28;20054;-53
2023/01/03 15:17:10;;;;;;;8.32;0.57;;;;;;;10.26;84.62;99818.09;4991652;28;20050;-53
2023/01/03 15:19:46;;;;;;;8.60;1.25;;;;;;;10.23;84.83;99802.56;4993571;28;20054;-54
2023/01/03 15:22:16;;;;;;;6.10;1.25;;;;;;;10.23;84.42;99802.56;4991272;28;20055;-53
2023/01/03 15:24:46;;;;;;;8.82;1.38;;;;;;;10.25;84.17;99800.84;4992392;28;21069;-52
2023/01/03 15:32:59;;;;;;;10.05;1.50;;;;;;;10.27;84.07;99804.28;5026998;27;20908;-55
2023/01/03 15:38:07;;;;;;;9.82;1.85;;;;;;;10.27;83.30;99806.03;5020367;28;20922;-56
2023/01/03 15:40:33;;;;;;;9.57;1.70;;;;;;;10.34;83.21;99793.91;5014174;28;20050;-54
2023/01/03 15:43:18;;;;;;;10.13;2.75;;;;;;;10.29;83.43;99797.38;4999374;28;20689;-53
2023/01/03 15:45:57;;;;;;;8.73;1.90;;;;;;;10.32;83.57;99772.31;5003654;28;20050;-53
2023/01/03 15:48:25;;;;;;;11.52;1.75;;;;;;;10.24;84.46;99774.97;5000778;28;20597;-54
2023/01/03 15:50:54;;;;;;;6.88;1.48;;;;;;;10.24;84.26;99762.03;4989272;28;20054;-55